首页
METAR-TAF:

METAR-TAF

机场 :

大福克斯国际机场

大福克斯, 北达科他州, 美国

纬度: 47-56-53N, 经度: 097-10-57W, 海拔: 257米

当前天气观测

该预报发布于33分钟前的20:53 UTC
风速9节,风向,在东转东南南转西南之间变化
温度 27°C
湿度 37%
气压 1015 hPa
能見度: 16.1公里
散云层高于6500英尺
散云层高于20000英尺

METAR: KGFK 142053Z 18009KT 120V200 10SM SCT065 SCT200 27/11 A2997 RMK AO2 SLP147 T02720111 56017

时间: 16:26 (21:26 UTC)

预报

该预报发布于3小时和45分钟前的17:41 UTC
预报有效从14日的 18点(UTC)到 15日的 18点(UTC)
风速5节,风向西转西南
能見度: 10公里
少量云层高于6000英尺
散云层高于16000英尺
从 15日的 0500点(UTC)
风速8节,风向南转南东
能見度: 10公里
多云层高于14000英尺
从 15日的 1500点(UTC)
风速16节,风向,有时为25节阵风
能見度: 10公里
多云层高于3000英尺

TAF: KGFK 141741Z 1418/1518 25005KT P6SM FEW060 SCT160 FM150500 15008KT P6SM BKN140 FM151500 17016G25KT P6SM BKN030

超过4000个机场的气象观测和天气预报(METAR&TAF报告)。

可查询的气象台以黄色和红色小点在地图上表示。

将鼠标移到小点上方,可查看气象台名称。

然后点击查看天气观测和预报。

如需切换地图:点击带黑十字的绿色按钮放大地图;点击带横线的绿色按钮缩小地图;或者点击绿色箭头查看邻近地区的地图。


METAR-TAF: